Time;durP1;ratioP1;P1;durP2;ratioP2;P2;SDS_P1;SDS_P2;PMS_P1;PMS_P2;Temp;Humidity;BMP_temperature;BMP_pressure;BME280_temperature;BME280_humidity;BME280_pressure;Samples;Min_cycle;Max_cycle;Signal;HPM_P1;HPM_P2
2023/06/22 00:00:26;;;;;;;12.10;7.28;;;;;;;24.65;67.03;99383.72;4359865;32;35113;-83
2023/06/22 00:02:54;;;;;;;15.05;7.28;;;;;;;24.64;67.04;99389.09;4361775;32;34265;-85
2023/06/22 00:05:22;;;;;;;14.80;6.93;;;;;;;24.65;67.15;99418.19;4362420;32;33767;-85
2023/06/22 00:07:50;;;;;;;14.02;7.85;;;;;;;24.49;66.71;99420.59;4360615;32;33932;-86
2023/06/22 00:10:17;;;;;;;13.30;6.37;;;;;;;24.24;67.49;99418.03;4336451;32;34987;-86
2023/06/22 00:12:45;;;;;;;16.85;7.62;;;;;;;24.37;67.32;99415.75;4365922;32;34486;-83
2023/06/22 00:15:12;;;;;;;16.60;6.72;;;;;;;24.50;67.17;99432.06;4364331;32;33633;-85
2023/06/22 00:17:40;;;;;;;12.13;6.37;;;;;;;24.68;65.91;99431.31;4360969;32;33826;-90
2023/06/22 00:20:10;;;;;;;12.13;6.47;;;;;;;24.82;64.90;99424.59;4359669;32;33835;-84
2023/06/22 00:22:38;;;;;;;13.52;6.25;;;;;;;24.64;65.57;99399.69;4360950;32;33713;-85
2023/06/22 00:25:07;;;;;;;11.20;6.90;;;;;;;24.69;65.21;99393.25;4370247;32;34076;-85
2023/06/22 00:27:35;;;;;;;14.73;6.72;;;;;;;24.72;64.53;99405.53;4370133;32;33728;-85
2023/06/22 00:30:03;;;;;;;16.17;7.60;;;;;;;24.64;65.22;99405.84;4370553;32;35039;-85
2023/06/22 00:32:31;;;;;;;13.75;6.57;;;;;;;24.63;65.22;99414.75;4358126;32;34450;-84
2023/06/22 00:37:45;;;;;;;15.68;6.70;;;;;;;24.56;65.54;99402.66;4361635;32;33591;-84
2023/06/22 00:40:14;;;;;;;12.60;6.45;;;;;;;24.68;65.34;99411.91;4347896;32;34067;-85
2023/06/22 00:42:42;;;;;;;12.60;6.43;;;;;;;24.61;65.39;99413.94;4369656;32;34855;-83
2023/06/22 00:45:09;;;;;;;19.27;7.15;;;;;;;24.83;64.30;99403.31;4360162;32;34646;-87
2023/06/22 00:47:38;;;;;;;15.32;6.90;;;;;;;24.69;64.47;99409.16;4358763;32;34067;-87
2023/06/22 00:50:07;;;;;;;11.75;6.15;;;;;;;24.56;65.20;99409.75;4370970;32;33666;-86
2023/06/22 00:52:35;;;;;;;13.65;5.85;;;;;;;24.62;64.79;99409.47;4337498;32;34055;-89
2023/06/22 00:55:04;;;;;;;12.55;5.70;;;;;;;24.52;64.91;99409.00;4342968;33;33344;-89
2023/06/22 00:57:32;;;;;;;13.77;6.05;;;;;;;24.54;64.49;99408.94;4330499;33;34117;-85
2023/06/22 00:59:59;;;;;;;13.43;5.57;;;;;;;24.57;63.90;99407.03;4346256;32;34137;-88
2023/06/22 01:02:27;;;;;;;11.98;5.20;;;;;;;24.49;63.68;99414.44;4343593;33;32599;-86
2023/06/22 01:04:55;;;;;;;12.60;5.00;;;;;;;24.40;63.56;99413.03;4332986;33;32862;-86
2023/06/22 01:07:35;;;;;;;20.45;6.07;;;;;;;24.24;63.68;99404.78;4344600;33;33590;-86
2023/06/22 01:10:06;;;;;;;16.20;5.07;;;;;;;24.25;64.20;99397.69;4332810;33;33818;-87
2023/06/22 01:12:43;;;;;;;11.63;4.87;;;;;;;24.33;63.83;99408.84;4345783;33;34476;-86
2023/06/22 01:15:16;;;;;;;11.65;5.20;;;;;;;24.36;63.62;99399.91;4346310;33;33736;-85
2023/06/22 01:17:44;;;;;;;14.05;5.25;;;;;;;24.31;63.69;99399.22;4332830;33;33615;-85
2023/06/22 01:20:15;;;;;;;11.95;5.03;;;;;;;24.07;64.00;99390.47;4332967;33;33725;-83
2023/06/22 01:23:05;;;;;;;13.32;5.35;;;;;;;24.05;63.89;99387.88;4320467;33;33371;-84
2023/06/22 01:25:48;;;;;;;11.18;5.10;;;;;;;24.14;63.40;99392.81;4346329;33;34668;-83
2023/06/22 01:28:41;;;;;;;12.55;4.90;;;;;;;24.02;63.82;99393.31;4317860;33;33942;-86
2023/06/22 01:31:12;;;;;;;14.68;5.97;;;;;;;23.93;63.95;99388.34;4331482;33;34217;-87
2023/06/22 01:33:42;;;;;;;15.35;5.65;;;;;;;23.55;65.62;99383.53;4318263;33;34859;-86
2023/06/22 01:36:10;;;;;;;14.55;6.03;;;;;;;23.23;66.58;99382.06;4318527;33;33694;-84
2023/06/22 01:38:38;;;;;;;14.38;6.15;;;;;;;23.08;67.37;99372.03;4332791;33;35078;-84
2023/06/22 01:41:06;;;;;;;17.08;7.00;;;;;;;23.11;67.36;99379.84;4332532;33;34177;-84
2023/06/22 01:43:34;;;;;;;16.48;7.15;;;;;;;23.14;67.55;99371.78;4343285;32;34088;-85
2023/06/22 01:46:02;;;;;;;16.27;7.75;;;;;;;23.01;68.37;99374.00;4331137;33;34234;-85
2023/06/22 01:48:30;;;;;;;14.52;8.73;;;;;;;22.76;69.75;99367.78;4320533;33;34686;-88
2023/06/22 01:50:58;;;;;;;14.95;7.82;;;;;;;22.74;70.09;99377.56;4346038;33;33794;-87
2023/06/22 01:53:25;;;;;;;13.77;8.35;;;;;;;22.88;69.94;99379.72;4344409;32;34040;-84
2023/06/22 01:55:53;;;;;;;15.65;8.55;;;;;;;23.11;69.12;99381.59;4359461;32;34849;-84
2023/06/22 01:58:23;;;;;;;17.90;9.45;;;;;;;23.43;67.99;99383.13;4360832;32;33551;-84
2023/06/22 02:01:11;;;;;;;19.52;9.35;;;;;;;23.35;68.54;99380.75;4331651;32;34086;-88
2023/06/22 02:03:44;;;;;;;12.80;8.85;;;;;;;23.36;68.80;99379.81;4345145;33;33712;-84
2023/06/22 02:06:34;;;;;;;16.45;9.23;;;;;;;23.51;68.39;99383.69;4338542;32;34654;-82
2023/06/22 02:09:07;;;;;;;15.80;9.30;;;;;;;23.44;68.69;99385.69;4343313;32;34001;-82
2023/06/22 02:11:36;;;;;;;14.80;9.70;;;;;;;23.17;70.00;99381.41;4346067;32;35100;-85
2023/06/22 02:14:06;;;;;;;19.02;10.88;;;;;;;23.08;70.54;99384.37;4345894;32;33784;-84
2023/06/22 02:16:33;;;;;;;17.25;10.90;;;;;;;22.93;71.49;99378.69;4345737;32;33784;-87
2023/06/22 02:19:03;;;;;;;19.92;10.52;;;;;;;22.75;72.75;99392.50;4359071;32;33970;-87
2023/06/22 02:21:33;;;;;;;16.50;10.32;;;;;;;22.87;72.50;99393.88;4358574;32;35040;-84
2023/06/22 02:24:01;;;;;;;17.55;9.48;;;;;;;23.17;71.37;99395.50;4359286;32;34271;-85
2023/06/22 02:26:30;;;;;;;15.63;9.55;;;;;;;23.21;70.44;99399.75;4344479;32;33674;-84
2023/06/22 02:28:57;;;;;;;13.20;9.68;;;;;;;23.47;69.66;99400.59;4346286;32;33112;-88
2023/06/22 02:31:30;;;;;;;14.15;9.55;;;;;;;23.43;69.81;99399.00;4359138;32;33951;-87
2023/06/22 02:33:58;;;;;;;14.98;8.77;;;;;;;23.37;69.94;99409.78;4359007;32;34009;-85
2023/06/22 02:36:30;;;;;;;15.20;8.05;;;;;;;23.33;69.63;99414.31;4359342;32;33756;-83
2023/06/22 02:39:01;;;;;;;16.00;8.07;;;;;;;23.30;68.73;99415.31;4359374;32;32698;-86
2023/06/22 02:41:30;;;;;;;18.23;7.53;;;;;;;23.25;68.82;99422.53;4344438;32;34281;-85
2023/06/22 02:43:57;;;;;;;10.77;6.82;;;;;;;23.46;67.96;99414.78;4346588;32;33288;-89
2023/06/22 02:46:25;;;;;;;13.90;7.18;;;;;;;23.47;67.61;99427.06;4358855;32;34382;-83
2023/06/22 02:48:53;;;;;;;14.30;7.12;;;;;;;23.49;67.21;99422.59;4359764;32;34784;-82
2023/06/22 02:51:20;;;;;;;14.25;6.90;;;;;;;23.59;66.73;99417.81;4345425;32;34029;-87
2023/06/22 02:53:48;;;;;;;15.82;7.28;;;;;;;23.65;66.49;99421.13;4359651;32;34209;-87
2023/06/22 02:56:17;;;;;;;12.75;6.82;;;;;;;23.54;66.80;99418.84;4359196;32;33904;-85
2023/06/22 02:58:45;;;;;;;13.10;6.25;;;;;;;23.59;66.70;99426.62;4357342;32;33932;-85
2023/06/22 03:01:13;;;;;;;20.52;6.37;;;;;;;23.74;66.34;99422.59;4358146;32;33676;-85
2023/06/22 03:03:42;;;;;;;11.88;6.65;;;;;;;23.77;65.84;99423.34;4360382;32;34291;-84
2023/06/22 03:06:13;;;;;;;15.15;7.30;;;;;;;23.29;67.48;99418.00;4359771;32;33541;-85
2023/06/22 03:08:41;;;;;;;11.30;6.30;;;;;;;22.93;68.17;99414.84;4360282;32;33715;-86
2023/06/22 03:11:09;;;;;;;14.15;6.97;;;;;;;22.96;67.67;99402.41;4359182;32;34150;-87
2023/06/22 03:13:37;;;;;;;16.02;7.35;;;;;;;23.24;66.81;99409.38;4359230;32;34327;-85
2023/06/22 03:16:06;;;;;;;14.98;6.32;;;;;;;23.43;66.85;99412.22;4360433;32;33617;-87
2023/06/22 03:18:33;;;;;;;13.77;6.80;;;;;;;23.59;66.05;99413.38;4360386;32;33465;-85
2023/06/22 03:21:02;;;;;;;13.55;6.65;;;;;;;23.47;66.30;99416.50;4346042;32;34002;-86
2023/06/22 03:23:31;;;;;;;18.60;6.93;;;;;;;23.73;65.49;99419.09;4359326;32;34299;-87
2023/06/22 03:25:58;;;;;;;15.32;6.20;;;;;;;23.64;65.67;99410.56;4359341;32;33385;-85
2023/06/22 03:28:26;;;;;;;13.20;6.78;;;;;;;23.59;66.01;99402.81;4344686;32;33849;-84
2023/06/22 03:30:54;;;;;;;15.05;6.10;;;;;;;23.60;66.24;99403.66;4346727;32;33949;-87
2023/06/22 03:33:22;;;;;;;16.87;6.70;;;;;;;23.74;65.74;99407.56;4346806;32;35091;-87
2023/06/22 03:35:50;;;;;;;14.02;6.45;;;;;;;23.93;64.75;99401.59;4359894;32;33381;-87
2023/06/22 03:38:18;;;;;;;18.05;6.35;;;;;;;23.71;65.42;99401.53;4346568;32;33864;-87
2023/06/22 03:40:45;;;;;;;10.68;5.68;;;;;;;23.77;65.35;99402.16;4360293;32;33868;-86
2023/06/22 03:43:13;;;;;;;12.98;5.75;;;;;;;23.74;65.51;99401.41;4346702;32;33459;-85
2023/06/22 03:45:41;;;;;;;11.18;5.57;;;;;;;23.77;65.24;99410.09;4360041;32;33548;-86
2023/06/22 03:48:08;;;;;;;10.50;6.00;;;;;;;23.69;65.65;99406.87;4360165;32;34805;-85
2023/06/22 03:50:37;;;;;;;10.90;5.05;;;;;;;23.66;65.96;99409.62;4359790;32;33980;-86
2023/06/22 03:53:04;;;;;;;12.18;5.75;;;;;;;23.90;65.40;99404.34;4346273;32;34916;-87
2023/06/22 03:55:33;;;;;;;14.27;5.40;;;;;;;24.09;65.09;99405.34;4360141;32;34696;-86
2023/06/22 03:58:05;;;;;;;10.85;5.57;;;;;;;23.83;65.74;99416.06;4360090;32;34678;-86
2023/06/22 04:00:33;;;;;;;17.50;5.60;;;;;;;23.95;65.54;99413.84;4359385;32;33894;-85
2023/06/22 04:03:01;;;;;;;13.90;5.43;;;;;;;24.09;65.44;99409.78;4345085;33;34021;-87
2023/06/22 04:05:28;;;;;;;13.45;5.30;;;;;;;24.08;65.26;99408.06;4357199;32;33385;-87
2023/06/22 04:07:56;;;;;;;12.23;5.55;;;;;;;24.08;65.31;99405.44;4344904;32;33880;-88
2023/06/22 04:10:23;;;;;;;16.90;6.05;;;;;;;24.17;65.26;99410.34;4344730;32;33524;-87
2023/06/22 04:12:51;;;;;;;11.32;5.40;;;;;;;24.39;64.53;99408.63;4359125;32;34334;-89
2023/06/22 04:15:19;;;;;;;12.30;4.90;;;;;;;24.28;64.65;99402.84;4344647;32;33646;-85
2023/06/22 04:17:46;;;;;;;13.52;5.32;;;;;;;24.24;65.11;99409.19;4357960;32;34791;-87
2023/06/22 04:20:14;;;;;;;14.18;5.32;;;;;;;24.36;65.26;99414.03;4358365;32;33490;-87
2023/06/22 04:22:42;;;;;;;12.20;5.45;;;;;;;24.47;65.18;99413.63;4358957;32;33605;-88
2023/06/22 04:25:09;;;;;;;13.68;5.57;;;;;;;24.89;64.17;99408.38;4359263;32;33702;-86
2023/06/22 04:27:39;;;;;;;12.35;5.40;;;;;;;24.63;65.00;99409.44;4360463;32;34054;-89
2023/06/22 04:30:07;;;;;;;14.80;5.90;;;;;;;24.70;64.77;99405.63;4359217;32;35131;-87
2023/06/22 04:32:39;;;;;;;10.77;5.30;;;;;;;24.86;64.60;99402.31;4359718;32;34270;-87
2023/06/22 04:35:07;;;;;;;10.57;5.45;;;;;;;25.09;63.93;99402.22;4346404;32;34600;-86
2023/06/22 04:37:35;;;;;;;15.38;5.75;;;;;;;25.17;63.69;99413.38;4360974;32;33786;-86
2023/06/22 04:40:04;;;;;;;11.77;5.65;;;;;;;25.20;64.05;99407.94;4347153;32;33795;-88
2023/06/22 04:42:34;;;;;;;14.30;5.80;;;;;;;25.37;63.83;99416.97;4359824;32;34169;-87
2023/06/22 04:45:03;;;;;;;13.82;6.07;;;;;;;25.48;63.84;99427.97;4345726;32;33985;-86
2023/06/22 04:47:30;;;;;;;12.90;4.75;;;;;;;25.81;62.56;99435.41;4359297;32;34411;-85
2023/06/22 04:49:58;;;;;;;15.52;5.20;;;;;;;25.82;61.89;99437.13;4345882;32;34353;-87
2023/06/22 04:52:26;;;;;;;13.90;5.95;;;;;;;25.99;61.07;99436.31;4359437;32;34281;-87
2023/06/22 04:54:57;;;;;;;12.90;5.93;;;;;;;26.01;60.42;99438.00;4361687;32;33944;-85
2023/06/22 04:57:31;;;;;;;13.32;5.97;;;;;;;25.70;59.60;99439.34;4358739;32;34758;-87
2023/06/22 05:00:35;;;;;;;12.15;5.30;;;;;;;25.71;59.76;99440.22;4361748;32;35283;-85
2023/06/22 05:02:56;;;;;;;11.48;5.78;;;;;;;26.04;59.62;99440.50;4342435;32;34377;-87
2023/06/22 05:05:44;;;;;;;10.20;5.70;;;;;;;25.26;60.48;99443.09;4351994;32;33865;-88
2023/06/22 05:08:13;;;;;;;13.68;5.32;;;;;;;25.46;60.40;99451.94;4359758;32;34103;-87
2023/06/22 05:10:40;;;;;;;16.62;5.72;;;;;;;25.89;59.29;99455.34;4359028;32;34148;-86
2023/06/22 05:13:28;;;;;;;11.23;5.57;;;;;;;26.32;60.11;99449.84;4359825;32;34033;-87
2023/06/22 05:16:00;;;;;;;11.65;5.22;;;;;;;26.34;59.97;99458.63;4346818;32;34436;-86
2023/06/22 05:18:31;;;;;;;11.93;4.93;;;;;;;26.09;58.18;99457.09;4360187;32;33817;-86
2023/06/22 05:21:00;;;;;;;13.80;4.80;;;;;;;26.53;59.27;99464.81;4358852;32;33506;-86
2023/06/22 05:23:27;;;;;;;12.65;5.50;;;;;;;26.58;60.18;99472.56;4346938;32;34766;-88
2023/06/22 05:25:57;;;;;;;16.45;5.28;;;;;;;26.99;59.65;99473.19;4359512;32;34494;-88
2023/06/22 05:28:25;;;;;;;15.25;5.32;;;;;;;26.74;58.63;99478.00;4360166;32;33923;-89
2023/06/22 05:30:53;;;;;;;12.13;5.40;;;;;;;26.98;58.06;99474.16;4359145;32;35016;-86
2023/06/22 05:33:21;;;;;;;11.02;5.57;;;;;;;27.28;57.42;99473.59;4356137;32;34961;-89
2023/06/22 05:35:48;;;;;;;12.73;5.30;;;;;;;27.46;56.43;99469.94;4345581;32;33634;-86
2023/06/22 05:38:15;;;;;;;12.32;5.15;;;;;;;27.80;54.76;99470.88;4343880;32;33543;-88
2023/06/22 05:40:43;;;;;;;14.77;5.45;;;;;;;27.96;55.86;99484.25;4344693;32;33931;-85
2023/06/22 05:43:11;;;;;;;12.75;4.85;;;;;;;28.21;56.06;99481.97;4345866;32;33527;-85
2023/06/22 05:45:38;;;;;;;13.35;5.15;;;;;;;28.33;57.16;99483.09;4356136;32;33294;-86
2023/06/22 05:48:06;;;;;;;14.98;5.03;;;;;;;28.12;57.29;99483.34;4358484;32;35173;-88
2023/06/22 05:50:34;;;;;;;10.90;4.50;;;;;;;28.30;55.48;99491.28;4360189;32;35309;-88
2023/06/22 05:53:01;;;;;;;11.40;4.82;;;;;;;28.40;55.60;99489.00;4359453;32;34231;-87
2023/06/22 05:55:29;;;;;;;17.00;5.30;;;;;;;28.52;52.08;99483.81;4354090;32;34394;-85
2023/06/22 05:57:56;;;;;;;12.30;5.12;;;;;;;28.61;55.56;99487.81;4358943;32;33649;-86
2023/06/22 06:00:24;;;;;;;10.73;4.53;;;;;;;28.62;51.56;99489.53;4351459;32;34984;-85
2023/06/22 06:02:51;;;;;;;14.40;4.55;;;;;;;28.49;53.22;99476.03;4359843;32;34083;-86
2023/06/22 06:05:19;;;;;;;14.35;5.00;;;;;;;28.60;52.84;99481.63;4370711;32;32628;-85
2023/06/22 06:07:46;;;;;;;15.10;5.12;;;;;;;28.37;51.37;99487.34;4359102;32;33990;-85
2023/06/22 06:10:14;;;;;;;15.13;5.32;;;;;;;28.79;51.61;99480.53;4359074;32;33666;-86
2023/06/22 06:12:42;;;;;;;15.45;5.22;;;;;;;28.09;53.23;99482.66;4359676;32;34447;-83
2023/06/22 06:15:09;;;;;;;14.18;5.10;;;;;;;28.20;52.49;99479.41;4358912;32;33798;-85
2023/06/22 06:17:47;;;;;;;14.82;5.37;;;;;;;27.99;52.48;99478.75;4356704;32;32131;-88
2023/06/22 06:20:17;;;;;;;15.85;5.28;;;;;;;28.24;53.78;99478.28;4345683;32;34858;-87
2023/06/22 06:22:45;;;;;;;13.52;6.10;;;;;;;28.39;54.45;99479.28;4357001;32;33647;-88
2023/06/22 06:25:15;;;;;;;13.15;4.80;;;;;;;28.58;52.85;99475.50;4366267;32;34414;-83
2023/06/22 06:27:43;;;;;;;11.43;4.85;;;;;;;29.02;52.07;99481.94;4345993;32;34329;-85
2023/06/22 06:30:12;;;;;;;17.48;5.20;;;;;;;29.11;50.57;99480.53;4351871;32;34221;-84
2023/06/22 06:32:40;;;;;;;11.23;5.00;;;;;;;29.11;50.89;99480.53;4344718;32;34762;-82
2023/06/22 06:35:09;;;;;;;10.15;4.90;;;;;;;28.81;49.77;99470.66;4343570;32;33248;-87
2023/06/22 06:37:38;;;;;;;10.27;4.78;;;;;;;29.47;52.51;99475.69;4358079;32;33622;-81
2023/06/22 06:40:10;;;;;;;12.23;4.40;;;;;;;29.37;48.65;99471.84;4359308;32;33864;-82
2023/06/22 06:42:45;;;;;;;14.13;5.00;;;;;;;28.89;50.46;99471.06;4356828;32;34342;-83
2023/06/22 06:45:15;;;;;;;14.35;4.85;;;;;;;29.03;49.61;99473.84;4356106;32;35594;-85
2023/06/22 06:47:42;;;;;;;10.75;4.68;;;;;;;28.99;50.54;99474.13;4346160;32;33924;-86
2023/06/22 06:50:11;;;;;;;15.55;5.35;;;;;;;29.21;50.53;99460.34;4358946;32;35103;-84
2023/06/22 06:52:38;;;;;;;14.18;4.62;;;;;;;29.26;48.58;99459.13;4346247;32;33681;-86
2023/06/22 06:55:13;;;;;;;11.70;5.05;;;;;;;29.20;49.35;99475.50;4357419;32;34317;-83
2023/06/22 06:57:41;;;;;;;14.90;5.22;;;;;;;29.56;47.72;99464.44;4359556;32;34599;-84
2023/06/22 07:00:13;;;;;;;11.63;4.90;;;;;;;29.99;47.97;99455.62;4344904;32;33802;-81
2023/06/22 07:02:43;;;;;;;16.37;4.70;;;;;;;30.34;48.51;99456.06;4358569;32;34305;-80
2023/06/22 07:05:12;;;;;;;14.57;5.20;;;;;;;30.42;46.57;99455.59;4359734;32;34528;-84
2023/06/22 07:07:41;;;;;;;14.43;5.20;;;;;;;30.71;44.28;99448.34;4346930;32;34680;-81
2023/06/22 07:10:09;;;;;;;11.45;4.78;;;;;;;30.74;42.61;99458.88;4357510;32;34974;-86
2023/06/22 07:12:37;;;;;;;10.38;4.15;;;;;;;30.96;42.93;99458.31;4360048;32;33842;-84
2023/06/22 07:15:09;;;;;;;10.32;4.60;;;;;;;30.71;41.57;99443.00;4360105;32;33528;-81
2023/06/22 07:17:39;;;;;;;10.45;4.80;;;;;;;30.59;40.66;99446.47;4362594;32;34740;-81
2023/06/22 07:20:10;;;;;;;11.73;5.37;;;;;;;30.41;40.31;99445.84;4362758;32;33904;-82
2023/06/22 07:22:40;;;;;;;13.75;5.55;;;;;;;30.52;43.04;99449.53;4357811;32;34514;-82
2023/06/22 07:25:13;;;;;;;11.55;5.43;;;;;;;31.09;41.08;99447.63;4359948;32;34211;-82
2023/06/22 07:28:06;;;;;;;11.07;6.03;;;;;;;31.20;44.81;99450.44;4358836;32;33636;-91
2023/06/22 07:30:34;;;;;;;10.95;6.53;;;;;;;30.97;42.51;99452.84;4358294;32;34163;-86
2023/06/22 07:33:03;;;;;;;12.13;6.43;;;;;;;31.07;40.92;99446.91;4346827;32;34223;-85
2023/06/22 07:35:31;;;;;;;12.68;7.03;;;;;;;30.75;40.00;99449.88;4345828;32;33193;-82
2023/06/22 07:37:59;;;;;;;12.15;5.97;;;;;;;30.71;42.19;99445.66;4357679;32;33621;-81
2023/06/22 07:40:32;;;;;;;12.95;7.72;;;;;;;31.46;44.76;99443.34;4371274;32;33923;-82
2023/06/22 07:43:01;;;;;;;12.30;6.97;;;;;;;30.64;42.69;99450.56;4350960;32;34429;-88
2023/06/22 07:45:28;;;;;;;12.95;7.45;;;;;;;31.07;40.60;99445.06;4370420;32;33803;-85
2023/06/22 07:47:56;;;;;;;11.90;6.87;;;;;;;30.81;41.98;99452.16;4356867;32;33810;-82
2023/06/22 07:50:23;;;;;;;11.52;7.57;;;;;;;31.13;42.83;99447.31;4359439;32;34736;-82
2023/06/22 07:52:52;;;;;;;15.75;7.35;;;;;;;31.25;40.33;99442.94;4360054;32;34999;-83
2023/06/22 07:55:20;;;;;;;14.48;7.47;;;;;;;30.69;41.92;99447.59;4360194;32;33904;-83
2023/06/22 07:57:49;;;;;;;11.50;7.20;;;;;;;31.38;40.55;99438.50;4344164;32;33234;-87
2023/06/22 08:00:17;;;;;;;13.57;7.43;;;;;;;30.83;40.27;99447.56;4335777;32;34407;-84
2023/06/22 08:02:46;;;;;;;15.88;7.75;;;;;;;30.86;41.16;99444.69;4357067;32;33669;-84
2023/06/22 08:05:14;;;;;;;14.38;8.15;;;;;;;30.70;41.31;99441.28;4341758;32;34417;-84
2023/06/22 08:07:49;;;;;;;11.75;7.53;;;;;;;31.02;41.54;99440.00;4344256;32;33972;-88
2023/06/22 08:10:17;;;;;;;12.00;7.12;;;;;;;31.29;41.67;99425.69;4356214;32;34268;-84
2023/06/22 08:12:44;;;;;;;11.18;7.57;;;;;;;31.65;40.57;99426.84;4341557;32;34383;-86
2023/06/22 08:15:12;;;;;;;11.90;7.30;;;;;;;31.67;41.88;99433.81;4357953;32;33723;-87
2023/06/22 08:17:40;;;;;;;12.80;7.95;;;;;;;30.91;43.08;99442.56;4355252;32;34145;-84
2023/06/22 08:20:14;;;;;;;11.75;7.45;;;;;;;30.90;41.22;99437.31;4358031;32;35040;-83
2023/06/22 08:22:42;;;;;;;15.40;8.07;;;;;;;31.39;41.49;99442.91;4355427;32;35076;-85
2023/06/22 08:25:10;;;;;;;13.75;8.43;;;;;;;31.41;40.70;99434.78;4356269;32;33864;-89
2023/06/22 08:27:38;;;;;;;15.73;9.38;;;;;;;31.19;40.40;99433.53;4357191;32;35090;-92
2023/06/22 08:30:07;;;;;;;11.57;8.23;;;;;;;31.56;40.42;99430.13;4359579;32;34129;-84
2023/06/22 08:32:35;;;;;;;11.20;7.72;;;;;;;31.68;41.26;99432.00;4345565;32;33453;-85
2023/06/22 08:35:03;;;;;;;10.73;8.35;;;;;;;31.72;42.27;99430.81;4358173;32;33706;-93
2023/06/22 08:37:30;;;;;;;12.37;8.20;;;;;;;31.58;40.63;99433.59;4359444;32;34029;-86
2023/06/22 08:39:59;;;;;;;14.52;8.38;;;;;;;31.73;39.99;99422.66;4331907;32;33940;-92
2023/06/22 08:42:27;;;;;;;12.80;8.95;;;;;;;32.00;40.09;99428.87;4344624;32;34911;-85
2023/06/22 08:44:55;;;;;;;14.95;9.02;;;;;;;31.70;41.44;99425.53;4344229;32;34305;-87
2023/06/22 08:47:23;;;;;;;14.52;7.90;;;;;;;31.67;40.08;99408.81;4359003;32;34836;-86
2023/06/22 08:49:50;;;;;;;12.65;8.57;;;;;;;31.57;42.48;99415.81;4344632;32;33636;-91
2023/06/22 08:52:19;;;;;;;12.55;8.52;;;;;;;31.22;42.98;99416.41;4343226;32;33736;-87
2023/06/22 08:54:47;;;;;;;14.65;8.82;;;;;;;30.72;43.14;99413.47;4357876;32;33710;-83
2023/06/22 08:57:15;;;;;;;14.68;9.48;;;;;;;30.25;43.82;99421.91;4357860;32;33994;-90
2023/06/22 08:59:43;;;;;;;16.95;9.30;;;;;;;30.79;43.44;99416.59;4344729;32;33610;-90
2023/06/22 09:02:11;;;;;;;12.13;8.10;;;;;;;30.90;42.97;99416.75;4358703;32;35062;-89
2023/06/22 09:04:39;;;;;;;18.40;8.25;;;;;;;31.24;42.17;99407.28;4358824;32;34305;-88
2023/06/22 09:07:07;;;;;;;11.63;8.70;;;;;;;31.62;43.01;99408.28;4357323;32;33586;-84
2023/06/22 09:09:34;;;;;;;11.00;7.78;;;;;;;31.61;40.43;99401.22;4345552;32;33631;-84
2023/06/22 09:12:02;;;;;;;12.70;8.95;;;;;;;31.56;41.70;99397.97;4359804;32;34274;-84
2023/06/22 09:14:30;;;;;;;13.25;9.73;;;;;;;31.74;41.76;99399.37;4364304;32;34402;-84
2023/06/22 09:16:57;;;;;;;11.10;8.43;;;;;;;31.31;41.02;99404.22;4349798;32;33921;-88
2023/06/22 09:19:25;;;;;;;13.55;9.10;;;;;;;31.80;41.34;99393.59;4361116;32;34889;-88
2023/06/22 09:21:52;;;;;;;13.15;8.98;;;;;;;32.18;40.97;99398.03;4361241;32;34111;-83
2023/06/22 09:24:20;;;;;;;16.08;9.23;;;;;;;32.13;40.46;99393.03;4347473;32;33361;-88
2023/06/22 09:26:47;;;;;;;14.10;8.40;;;;;;;32.07;41.10;99398.81;4360460;32;34268;-87
2023/06/22 09:29:15;;;;;;;12.50;8.65;;;;;;;32.27;41.15;99397.34;4360470;32;34936;-89
2023/06/22 09:31:42;;;;;;;16.70;9.55;;;;;;;32.24;40.75;99386.88;4366813;32;34023;-84
2023/06/22 09:34:10;;;;;;;11.88;8.23;;;;;;;32.37;40.71;99389.50;4339007;32;33304;-91
2023/06/22 09:36:39;;;;;;;13.95;8.65;;;;;;;31.86;41.60;99395.88;4359906;32;34694;-84
2023/06/22 09:39:07;;;;;;;18.20;9.13;;;;;;;32.53;39.63;99389.25;4360962;32;34234;-84
2023/06/22 09:41:34;;;;;;;13.60;8.27;;;;;;;32.59;43.44;99403.06;4360614;32;34308;-91
2023/06/22 09:44:02;;;;;;;15.77;8.57;;;;;;;32.77;39.04;99390.09;4360748;32;34598;-83
2023/06/22 09:46:29;;;;;;;11.25;8.63;;;;;;;32.75;38.48;99383.13;4346518;32;33260;-88
2023/06/22 09:48:57;;;;;;;12.60;8.35;;;;;;;32.54;39.95;99381.06;4347192;32;35096;-92
2023/06/22 09:51:25;;;;;;;12.82;8.95;;;;;;;32.12;41.33;99388.59;4360370;32;33805;-82
2023/06/22 09:53:55;;;;;;;13.82;8.68;;;;;;;32.57;38.83;99382.69;4360929;32;33875;-83
2023/06/22 09:56:22;;;;;;;16.42;8.77;;;;;;;32.55;40.43;99382.81;4360232;32;34762;-81
2023/06/22 09:58:52;;;;;;;13.62;8.55;;;;;;;32.57;39.91;99382.69;4359575;32;35063;-82
2023/06/22 10:01:21;;;;;;;13.62;9.60;;;;;;;32.59;39.66;99394.16;4361113;32;35118;-83
2023/06/22 10:03:49;;;;;;;14.38;9.00;;;;;;;32.50;41.36;99397.53;4348488;32;33808;-82
2023/06/22 10:06:17;;;;;;;14.57;8.93;;;;;;;32.68;37.94;99385.41;4360678;32;33899;-84
2023/06/22 10:08:44;;;;;;;14.60;9.50;;;;;;;32.55;40.38;99382.81;4360854;32;34003;-88
2023/06/22 10:11:12;;;;;;;15.70;9.05;;;;;;;33.08;39.41;99367.16;4347406;32;34341;-89
2023/06/22 10:13:39;;;;;;;12.85;8.93;;;;;;;33.10;38.20;99375.09;4360529;32;33165;-93
2023/06/22 10:16:07;;;;;;;11.80;8.82;;;;;;;33.22;37.78;99375.97;4360722;32;33957;-89
2023/06/22 10:18:34;;;;;;;14.00;8.68;;;;;;;33.18;38.29;99380.72;4360559;32;33817;-88
2023/06/22 10:21:02;;;;;;;13.70;9.25;;;;;;;33.18;37.97;99375.34;4360750;32;34853;-83
2023/06/22 10:23:29;;;;;;;16.25;8.70;;;;;;;33.21;38.81;99371.56;4346671;32;33303;-83
2023/06/22 10:25:58;;;;;;;11.10;8.88;;;;;;;33.30;38.13;99368.16;4360592;32;35130;-92
2023/06/22 10:28:25;;;;;;;12.50;9.05;;;;;;;33.22;38.30;99374.13;4360627;32;35256;-91
2023/06/22 10:30:53;;;;;;;14.05;8.88;;;;;;;33.64;38.54;99369.94;4360779;32;34073;-91
2023/06/22 10:33:20;;;;;;;16.65;9.23;;;;;;;33.38;40.70;99366.59;4346669;32;33092;-89
2023/06/22 10:35:48;;;;;;;14.73;9.20;;;;;;;33.33;38.37;99370.59;4359991;32;34141;-87
2023/06/22 10:38:16;;;;;;;13.00;8.60;;;;;;;33.30;37.95;99371.72;4360339;32;34636;-90
2023/06/22 10:40:44;;;;;;;14.32;9.20;;;;;;;33.20;38.54;99369.88;4360781;32;34740;-96
2023/06/22 10:43:11;;;;;;;12.90;8.88;;;;;;;32.89;40.45;99362.31;4346903;32;34322;-93
2023/06/22 10:45:40;;;;;;;13.60;8.52;;;;;;;32.92;39.56;99364.78;4347146;32;33664;-91
2023/06/22 10:48:07;;;;;;;12.32;9.02;;;;;;;32.85;40.09;99368.03;4360918;32;33646;-90
2023/06/22 10:50:35;;;;;;;14.27;9.43;;;;;;;32.46;40.28;99370.06;4360666;32;34186;-92
2023/06/22 10:53:02;;;;;;;16.05;8.85;;;;;;;32.93;39.23;99360.25;4364334;32;34406;-82
2023/06/22 10:55:30;;;;;;;14.70;9.27;;;;;;;33.09;39.44;99359.94;4360813;32;34785;-85
2023/06/22 10:58:19;;;;;;;13.80;9.23;;;;;;;33.16;40.53;99366.56;4360680;32;34963;-82
2023/06/22 11:00:46;;;;;;;13.68;9.02;;;;;;;33.15;39.63;99364.88;4347208;32;33838;-82
2023/06/22 11:03:14;;;;;;;12.90;9.38;;;;;;;33.52;38.28;99367.38;4360678;32;33607;-91
2023/06/22 11:05:42;;;;;;;11.60;8.48;;;;;;;33.45;40.11;99366.09;4360283;32;34391;-81
2023/06/22 11:08:09;;;;;;;11.63;8.20;;;;;;;33.48;39.10;99366.75;4346801;32;33443;-88
2023/06/22 11:10:37;;;;;;;16.95;9.10;;;;;;;33.92;40.79;99361.50;4360171;32;34064;-88
2023/06/22 11:13:05;;;;;;;20.08;8.90;;;;;;;33.24;40.77;99358.75;4360402;32;34682;-89
2023/06/22 11:15:33;;;;;;;14.13;9.15;;;;;;;33.64;37.95;99356.50;4360688;32;33648;-85
2023/06/22 11:18:01;;;;;;;17.20;8.95;;;;;;;33.36;38.28;99360.47;4360555;32;34301;-85
2023/06/22 11:20:28;;;;;;;12.73;8.27;;;;;;;33.26;37.55;99353.25;4359541;32;34226;-89
2023/06/22 11:22:56;;;;;;;17.05;8.98;;;;;;;33.23;39.13;99346.31;4345665;33;33670;-90
2023/06/22 11:25:24;;;;;;;13.55;8.07;;;;;;;33.39;37.08;99344.13;4345584;33;34648;-87
2023/06/22 11:27:53;;;;;;;11.95;8.70;;;;;;;33.33;37.03;99352.66;4346836;32;33593;-83
2023/06/22 11:30:22;;;;;;;12.30;8.60;;;;;;;33.25;38.75;99341.66;4360552;32;34780;-85
2023/06/22 11:32:50;;;;;;;12.10;8.18;;;;;;;33.50;37.53;99340.63;4322607;32;33531;-84
2023/06/22 11:35:18;;;;;;;15.20;8.32;;;;;;;33.68;36.46;99338.31;4345423;32;34544;-85